sensor_id;sensor_type;location;lat;lon;timestamp;P1;durP1;ratioP1;P2;durP2;ratioP2
1026;SDS011;502;48.746;9.214;2023-08-06T00:00:16;8.63;;;7.77;;
1026;SDS011;502;48.746;9.214;2023-08-06T00:02:43;10.17;;;8.53;;
1026;SDS011;502;48.746;9.214;2023-08-06T00:05:10;10.40;;;9.20;;
1026;SDS011;502;48.746;9.214;2023-08-06T00:07:36;9.87;;;8.87;;
1026;SDS011;502;48.746;9.214;2023-08-06T00:10:05;10.97;;;9.77;;
1026;SDS011;502;48.746;9.214;2023-08-06T00:12:32;11.77;;;10.27;;
1026;SDS011;502;48.746;9.214;2023-08-06T00:14:58;10.90;;;9.80;;
1026;SDS011;502;48.746;9.214;2023-08-06T00:17:25;11.03;;;9.93;;
1026;SDS011;502;48.746;9.214;2023-08-06T00:19:51;12.40;;;10.10;;
1026;SDS011;502;48.746;9.214;2023-08-06T00:22:18;12.23;;;10.93;;
1026;SDS011;502;48.746;9.214;2023-08-06T00:24:45;12.47;;;11.17;;
1026;SDS011;502;48.746;9.214;2023-08-06T00:27:12;14.90;;;13.03;;
1026;SDS011;502;48.746;9.214;2023-08-06T00:29:39;11.13;;;10.00;;
1026;SDS011;502;48.746;9.214;2023-08-06T00:32:06;11.97;;;10.27;;
1026;SDS011;502;48.746;9.214;2023-08-06T00:34:32;14.00;;;12.50;;
1026;SDS011;502;48.746;9.214;2023-08-06T00:36:59;15.57;;;13.67;;
1026;SDS011;502;48.746;9.214;2023-08-06T00:39:25;16.87;;;13.80;;
1026;SDS011;502;48.746;9.214;2023-08-06T00:41:52;14.67;;;12.93;;
1026;SDS011;502;48.746;9.214;2023-08-06T00:44:21;15.50;;;13.40;;
1026;SDS011;502;48.746;9.214;2023-08-06T00:46:47;17.60;;;13.47;;
1026;SDS011;502;48.746;9.214;2023-08-06T00:49:14;15.90;;;14.27;;
1026;SDS011;502;48.746;9.214;2023-08-06T00:51:40;16.50;;;13.97;;
1026;SDS011;502;48.746;9.214;2023-08-06T00:54:08;13.47;;;12.10;;
1026;SDS011;502;48.746;9.214;2023-08-06T00:59:28;9.20;;;8.30;;
1026;SDS011;502;48.746;9.214;2023-08-06T01:01:55;6.40;;;5.80;;
1026;SDS011;502;48.746;9.214;2023-08-06T01:04:22;6.30;;;5.70;;
1026;SDS011;502;48.746;9.214;2023-08-06T01:06:51;5.30;;;4.80;;
1026;SDS011;502;48.746;9.214;2023-08-06T01:09:33;5.60;;;5.10;;
1026;SDS011;502;48.746;9.214;2023-08-06T01:12:05;4.80;;;4.33;;
1026;SDS011;502;48.746;9.214;2023-08-06T01:17:23;4.80;;;4.30;;
1026;SDS011;502;48.746;9.214;2023-08-06T01:19:51;6.03;;;5.50;;
1026;SDS011;502;48.746;9.214;2023-08-06T01:22:19;4.67;;;4.17;;
1026;SDS011;502;48.746;9.214;2023-08-06T01:24:47;4.43;;;4.03;;
1026;SDS011;502;48.746;9.214;2023-08-06T01:27:17;5.00;;;4.47;;
1026;SDS011;502;48.746;9.214;2023-08-06T01:29:53;4.80;;;4.40;;
1026;SDS011;502;48.746;9.214;2023-08-06T01:32:23;6.80;;;5.40;;
1026;SDS011;502;48.746;9.214;2023-08-06T01:34:51;7.67;;;5.20;;
1026;SDS011;502;48.746;9.214;2023-08-06T01:37:20;5.37;;;4.87;;
1026;SDS011;502;48.746;9.214;2023-08-06T01:39:46;5.00;;;4.50;;
1026;SDS011;502;48.746;9.214;2023-08-06T01:42:13;4.60;;;4.20;;
1026;SDS011;502;48.746;9.214;2023-08-06T01:44:40;5.00;;;4.30;;
1026;SDS011;502;48.746;9.214;2023-08-06T01:47:06;5.23;;;4.73;;
1026;SDS011;502;48.746;9.214;2023-08-06T01:49:33;4.40;;;3.93;;
1026;SDS011;502;48.746;9.214;2023-08-06T01:51:59;6.00;;;4.47;;
1026;SDS011;502;48.746;9.214;2023-08-06T01:54:27;6.93;;;4.67;;
1026;SDS011;502;48.746;9.214;2023-08-06T01:56:54;5.03;;;4.53;;
1026;SDS011;502;48.746;9.214;2023-08-06T01:59:20;4.57;;;4.17;;
1026;SDS011;502;48.746;9.214;2023-08-06T02:01:47;5.60;;;5.10;;
1026;SDS011;502;48.746;9.214;2023-08-06T02:04:14;4.10;;;3.70;;
1026;SDS011;502;48.746;9.214;2023-08-06T02:06:40;5.40;;;4.90;;
1026;SDS011;502;48.746;9.214;2023-08-06T02:09:07;5.57;;;4.70;;
1026;SDS011;502;48.746;9.214;2023-08-06T02:11:36;5.10;;;4.70;;
1026;SDS011;502;48.746;9.214;2023-08-06T02:14:03;4.20;;;3.80;;
1026;SDS011;502;48.746;9.214;2023-08-06T02:16:29;5.43;;;4.30;;
1026;SDS011;502;48.746;9.214;2023-08-06T02:18:56;4.90;;;4.43;;
1026;SDS011;502;48.746;9.214;2023-08-06T02:21:22;5.20;;;4.70;;
1026;SDS011;502;48.746;9.214;2023-08-06T02:23:49;5.10;;;4.60;;
1026;SDS011;502;48.746;9.214;2023-08-06T02:26:15;5.33;;;4.70;;
1026;SDS011;502;48.746;9.214;2023-08-06T02:28:43;4.70;;;4.17;;
1026;SDS011;502;48.746;9.214;2023-08-06T02:31:12;5.20;;;4.70;;
1026;SDS011;502;48.746;9.214;2023-08-06T02:33:38;5.83;;;4.00;;
1026;SDS011;502;48.746;9.214;2023-08-06T02:36:05;4.40;;;4.00;;
1026;SDS011;502;48.746;9.214;2023-08-06T02:38:31;5.67;;;3.90;;
1026;SDS011;502;48.746;9.214;2023-08-06T02:40:58;4.40;;;4.00;;
1026;SDS011;502;48.746;9.214;2023-08-06T02:43:25;7.43;;;4.00;;
1026;SDS011;502;48.746;9.214;2023-08-06T02:45:56;5.97;;;3.50;;
1026;SDS011;502;48.746;9.214;2023-08-06T02:48:23;4.77;;;4.00;;
1026;SDS011;502;48.746;9.214;2023-08-06T02:50:49;4.67;;;3.70;;
1026;SDS011;502;48.746;9.214;2023-08-06T02:53:16;4.43;;;3.70;;
1026;SDS011;502;48.746;9.214;2023-08-06T02:55:45;4.53;;;3.40;;
1026;SDS011;502;48.746;9.214;2023-08-06T02:58:13;4.63;;;3.20;;
1026;SDS011;502;48.746;9.214;2023-08-06T03:00:45;3.40;;;3.10;;
1026;SDS011;502;48.746;9.214;2023-08-06T03:03:15;4.20;;;3.80;;
1026;SDS011;502;48.746;9.214;2023-08-06T03:05:51;5.20;;;3.17;;
1026;SDS011;502;48.746;9.214;2023-08-06T03:08:23;5.07;;;3.60;;
1026;SDS011;502;48.746;9.214;2023-08-06T03:10:50;4.20;;;3.20;;
1026;SDS011;502;48.746;9.214;2023-08-06T03:13:18;5.10;;;3.40;;
1026;SDS011;502;48.746;9.214;2023-08-06T03:15:51;3.47;;;3.17;;
1026;SDS011;502;48.746;9.214;2023-08-06T03:18:19;3.90;;;3.43;;
1026;SDS011;502;48.746;9.214;2023-08-06T03:20:46;3.80;;;3.00;;
1026;SDS011;502;48.746;9.214;2023-08-06T03:23:13;3.03;;;2.63;;
1026;SDS011;502;48.746;9.214;2023-08-06T03:25:40;4.13;;;3.17;;
1026;SDS011;502;48.746;9.214;2023-08-06T03:28:06;4.53;;;3.07;;
1026;SDS011;502;48.746;9.214;2023-08-06T03:30:33;3.30;;;2.57;;
1026;SDS011;502;48.746;9.214;2023-08-06T03:33:00;3.90;;;2.70;;
1026;SDS011;502;48.746;9.214;2023-08-06T03:35:29;2.70;;;2.40;;
1026;SDS011;502;48.746;9.214;2023-08-06T03:37:56;2.90;;;2.43;;
1026;SDS011;502;48.746;9.214;2023-08-06T03:40:23;3.67;;;3.20;;
1026;SDS011;502;48.746;9.214;2023-08-06T03:42:50;3.50;;;2.60;;
1026;SDS011;502;48.746;9.214;2023-08-06T03:45:16;4.23;;;2.80;;
1026;SDS011;502;48.746;9.214;2023-08-06T03:47:43;3.80;;;2.73;;
1026;SDS011;502;48.746;9.214;2023-08-06T03:50:10;3.50;;;3.00;;
1026;SDS011;502;48.746;9.214;2023-08-06T03:52:38;3.00;;;2.30;;
1026;SDS011;502;48.746;9.214;2023-08-06T03:55:04;3.33;;;2.87;;
1026;SDS011;502;48.746;9.214;2023-08-06T03:57:31;4.87;;;2.80;;
1026;SDS011;502;48.746;9.214;2023-08-06T03:59:58;3.00;;;2.63;;
1026;SDS011;502;48.746;9.214;2023-08-06T04:02:28;2.73;;;2.40;;
1026;SDS011;502;48.746;9.214;2023-08-06T04:04:54;3.10;;;2.50;;
1026;SDS011;502;48.746;9.214;2023-08-06T04:07:21;3.90;;;2.60;;
1026;SDS011;502;48.746;9.214;2023-08-06T04:09:56;3.33;;;2.30;;
1026;SDS011;502;48.746;9.214;2023-08-06T04:12:24;2.97;;;2.40;;
1026;SDS011;502;48.746;9.214;2023-08-06T04:14:52;3.23;;;2.50;;
1026;SDS011;502;48.746;9.214;2023-08-06T04:17:19;3.70;;;2.37;;
1026;SDS011;502;48.746;9.214;2023-08-06T04:19:46;3.13;;;2.50;;
1026;SDS011;502;48.746;9.214;2023-08-06T04:22:13;2.63;;;2.20;;
1026;SDS011;502;48.746;9.214;2023-08-06T04:24:41;3.00;;;2.00;;
1026;SDS011;502;48.746;9.214;2023-08-06T04:27:09;3.20;;;2.83;;
1026;SDS011;502;48.746;9.214;2023-08-06T04:29:36;2.83;;;1.97;;
1026;SDS011;502;48.746;9.214;2023-08-06T04:32:03;4.07;;;2.23;;
1026;SDS011;502;48.746;9.214;2023-08-06T04:34:32;3.23;;;2.10;;
1026;SDS011;502;48.746;9.214;2023-08-06T04:36:59;2.50;;;1.97;;
1026;SDS011;502;48.746;9.214;2023-08-06T04:39:26;2.50;;;1.77;;
1026;SDS011;502;48.746;9.214;2023-08-06T04:41:54;2.53;;;1.80;;
1026;SDS011;502;48.746;9.214;2023-08-06T04:44:23;2.90;;;1.90;;
1026;SDS011;502;48.746;9.214;2023-08-06T04:46:50;3.40;;;2.40;;
1026;SDS011;502;48.746;9.214;2023-08-06T04:49:16;2.67;;;1.60;;
1026;SDS011;502;48.746;9.214;2023-08-06T04:51:43;2.70;;;1.87;;
1026;SDS011;502;48.746;9.214;2023-08-06T04:54:10;3.20;;;2.27;;
1026;SDS011;502;48.746;9.214;2023-08-06T04:56:36;3.03;;;2.20;;
1026;SDS011;502;48.746;9.214;2023-08-06T04:59:03;2.90;;;1.80;;
1026;SDS011;502;48.746;9.214;2023-08-06T05:01:31;2.10;;;1.50;;
1026;SDS011;502;48.746;9.214;2023-08-06T05:03:57;2.80;;;2.23;;
1026;SDS011;502;48.746;9.214;2023-08-06T05:06:24;3.27;;;1.40;;
1026;SDS011;502;48.746;9.214;2023-08-06T05:08:50;3.07;;;1.80;;
1026;SDS011;502;48.746;9.214;2023-08-06T05:11:17;3.40;;;2.10;;
1026;SDS011;502;48.746;9.214;2023-08-06T05:13:43;2.00;;;1.43;;
1026;SDS011;502;48.746;9.214;2023-08-06T05:16:10;2.07;;;1.70;;
1026;SDS011;502;48.746;9.214;2023-08-06T05:18:38;3.20;;;1.97;;
1026;SDS011;502;48.746;9.214;2023-08-06T05:21:06;3.00;;;1.77;;
1026;SDS011;502;48.746;9.214;2023-08-06T05:23:32;2.00;;;1.47;;
1026;SDS011;502;48.746;9.214;2023-08-06T05:25:59;2.70;;;1.63;;
1026;SDS011;502;48.746;9.214;2023-08-06T05:28:25;3.90;;;2.10;;
1026;SDS011;502;48.746;9.214;2023-08-06T05:30:52;2.70;;;1.50;;
1026;SDS011;502;48.746;9.214;2023-08-06T05:33:19;2.30;;;1.40;;
1026;SDS011;502;48.746;9.214;2023-08-06T05:35:47;2.73;;;1.57;;
1026;SDS011;502;48.746;9.214;2023-08-06T05:38:15;2.60;;;1.43;;
1026;SDS011;502;48.746;9.214;2023-08-06T05:40:42;3.10;;;1.23;;
1026;SDS011;502;48.746;9.214;2023-08-06T05:43:09;1.87;;;1.10;;
1026;SDS011;502;48.746;9.214;2023-08-06T05:45:35;4.73;;;1.30;;
1026;SDS011;502;48.746;9.214;2023-08-06T05:48:02;1.70;;;1.00;;
1026;SDS011;502;48.746;9.214;2023-08-06T05:50:29;3.03;;;1.10;;
1026;SDS011;502;48.746;9.214;2023-08-06T05:52:57;1.50;;;1.13;;
1026;SDS011;502;48.746;9.214;2023-08-06T05:55:26;1.10;;;0.83;;
1026;SDS011;502;48.746;9.214;2023-08-06T05:57:52;1.40;;;0.90;;
1026;SDS011;502;48.746;9.214;2023-08-06T06:00:20;1.80;;;0.93;;
1026;SDS011;502;48.746;9.214;2023-08-06T06:02:47;2.57;;;1.10;;
1026;SDS011;502;48.746;9.214;2023-08-06T06:05:13;2.00;;;1.20;;
1026;SDS011;502;48.746;9.214;2023-08-06T06:07:40;1.63;;;1.07;;
1026;SDS011;502;48.746;9.214;2023-08-06T06:10:08;2.07;;;1.00;;
1026;SDS011;502;48.746;9.214;2023-08-06T06:12:35;1.73;;;1.03;;
1026;SDS011;502;48.746;9.214;2023-08-06T06:15:04;1.20;;;0.70;;
1026;SDS011;502;48.746;9.214;2023-08-06T06:17:31;1.43;;;0.90;;
1026;SDS011;502;48.746;9.214;2023-08-06T06:19:58;1.60;;;0.93;;
1026;SDS011;502;48.746;9.214;2023-08-06T06:22:25;1.80;;;0.83;;
1026;SDS011;502;48.746;9.214;2023-08-06T06:24:51;2.97;;;1.20;;
1026;SDS011;502;48.746;9.214;2023-08-06T06:27:19;1.90;;;1.03;;
1026;SDS011;502;48.746;9.214;2023-08-06T06:29:45;2.00;;;0.80;;
1026;SDS011;502;48.746;9.214;2023-08-06T06:32:12;2.17;;;0.90;;
1026;SDS011;502;48.746;9.214;2023-08-06T06:34:39;1.77;;;1.07;;
1026;SDS011;502;48.746;9.214;2023-08-06T06:37:05;1.40;;;0.90;;
1026;SDS011;502;48.746;9.214;2023-08-06T06:39:32;1.30;;;0.77;;
1026;SDS011;502;48.746;9.214;2023-08-06T06:41:59;1.60;;;0.70;;
1026;SDS011;502;48.746;9.214;2023-08-06T06:44:35;1.37;;;0.83;;
1026;SDS011;502;48.746;9.214;2023-08-06T06:47:02;2.27;;;0.90;;
1026;SDS011;502;48.746;9.214;2023-08-06T06:49:29;2.30;;;0.90;;
1026;SDS011;502;48.746;9.214;2023-08-06T06:51:56;2.70;;;0.67;;
1026;SDS011;502;48.746;9.214;2023-08-06T06:54:22;3.00;;;1.00;;
1026;SDS011;502;48.746;9.214;2023-08-06T06:56:49;1.33;;;0.80;;
1026;SDS011;502;48.746;9.214;2023-08-06T06:59:15;1.07;;;0.67;;
1026;SDS011;502;48.746;9.214;2023-08-06T07:01:43;2.63;;;0.80;;
1026;SDS011;502;48.746;9.214;2023-08-06T07:04:10;1.43;;;0.80;;
1026;SDS011;502;48.746;9.214;2023-08-06T07:06:36;1.27;;;0.70;;
1026;SDS011;502;48.746;9.214;2023-08-06T07:09:03;2.30;;;1.40;;
1026;SDS011;502;48.746;9.214;2023-08-06T07:11:31;1.40;;;0.90;;
1026;SDS011;502;48.746;9.214;2023-08-06T07:13:57;1.27;;;0.60;;
1026;SDS011;502;48.746;9.214;2023-08-06T07:16:24;1.30;;;0.90;;
1026;SDS011;502;48.746;9.214;2023-08-06T07:18:52;2.03;;;0.80;;
1026;SDS011;502;48.746;9.214;2023-08-06T07:21:20;1.43;;;0.73;;
1026;SDS011;502;48.746;9.214;2023-08-06T07:23:46;1.53;;;0.83;;
1026;SDS011;502;48.746;9.214;2023-08-06T07:26:14;1.60;;;0.60;;
1026;SDS011;502;48.746;9.214;2023-08-06T07:28:40;1.53;;;0.53;;
1026;SDS011;502;48.746;9.214;2023-08-06T07:31:07;2.20;;;0.70;;
1026;SDS011;502;48.746;9.214;2023-08-06T07:33:34;0.90;;;0.50;;
1026;SDS011;502;48.746;9.214;2023-08-06T07:36:08;0.90;;;0.50;;
1026;SDS011;502;48.746;9.214;2023-08-06T07:38:35;1.20;;;0.70;;
1026;SDS011;502;48.746;9.214;2023-08-06T07:41:02;1.10;;;0.63;;
1026;SDS011;502;48.746;9.214;2023-08-06T07:43:29;1.43;;;0.50;;
1026;SDS011;502;48.746;9.214;2023-08-06T07:45:57;0.90;;;0.57;;
1026;SDS011;502;48.746;9.214;2023-08-06T07:48:24;0.90;;;0.40;;
1026;SDS011;502;48.746;9.214;2023-08-06T07:50:51;1.50;;;0.47;;
1026;SDS011;502;48.746;9.214;2023-08-06T07:53:20;0.80;;;0.30;;
1026;SDS011;502;48.746;9.214;2023-08-06T07:55:50;0.97;;;0.37;;
1026;SDS011;502;48.746;9.214;2023-08-06T07:58:17;0.80;;;0.40;;
1026;SDS011;502;48.746;9.214;2023-08-06T08:00:44;1.20;;;0.50;;
1026;SDS011;502;48.746;9.214;2023-08-06T08:03:10;1.37;;;0.33;;
1026;SDS011;502;48.746;9.214;2023-08-06T08:05:37;0.70;;;0.20;;
1026;SDS011;502;48.746;9.214;2023-08-06T08:08:03;5.40;;;0.43;;
1026;SDS011;502;48.746;9.214;2023-08-06T08:10:31;1.30;;;0.40;;
1026;SDS011;502;48.746;9.214;2023-08-06T08:12:58;1.57;;;0.30;;
1026;SDS011;502;48.746;9.214;2023-08-06T08:15:25;0.90;;;0.40;;
1026;SDS011;502;48.746;9.214;2023-08-06T08:17:52;0.70;;;0.30;;
1026;SDS011;502;48.746;9.214;2023-08-06T08:20:18;1.00;;;0.30;;
1026;SDS011;502;48.746;9.214;2023-08-06T08:22:45;0.80;;;0.20;;
1026;SDS011;502;48.746;9.214;2023-08-06T08:25:11;1.10;;;0.30;;
1026;SDS011;502;48.746;9.214;2023-08-06T08:27:39;0.80;;;0.30;;
1026;SDS011;502;48.746;9.214;2023-08-06T08:30:06;0.90;;;0.40;;
1026;SDS011;502;48.746;9.214;2023-08-06T08:32:34;1.20;;;0.30;;
1026;SDS011;502;48.746;9.214;2023-08-06T08:35:00;0.70;;;0.30;;
1026;SDS011;502;48.746;9.214;2023-08-06T08:37:27;0.70;;;0.20;;
1026;SDS011;502;48.746;9.214;2023-08-06T08:39:54;0.70;;;0.20;;
1026;SDS011;502;48.746;9.214;2023-08-06T08:42:20;1.43;;;0.30;;
1026;SDS011;502;48.746;9.214;2023-08-06T08:44:48;0.70;;;0.27;;
1026;SDS011;502;48.746;9.214;2023-08-06T08:47:15;0.70;;;0.23;;
1026;SDS011;502;48.746;9.214;2023-08-06T08:49:44;0.70;;;0.20;;
1026;SDS011;502;48.746;9.214;2023-08-06T08:52:11;0.70;;;0.20;;
1026;SDS011;502;48.746;9.214;2023-08-06T08:54:41;0.70;;;0.20;;
1026;SDS011;502;48.746;9.214;2023-08-06T08:57:08;0.90;;;0.20;;
1026;SDS011;502;48.746;9.214;2023-08-06T08:59:35;0.87;;;0.30;;
1026;SDS011;502;48.746;9.214;2023-08-06T09:02:03;0.80;;;0.30;;
1026;SDS011;502;48.746;9.214;2023-08-06T09:04:30;0.70;;;0.20;;
1026;SDS011;502;48.746;9.214;2023-08-06T09:06:58;0.70;;;0.20;;
1026;SDS011;502;48.746;9.214;2023-08-06T09:09:25;0.70;;;0.20;;
1026;SDS011;502;48.746;9.214;2023-08-06T09:11:54;0.70;;;0.27;;
1026;SDS011;502;48.746;9.214;2023-08-06T09:14:22;0.80;;;0.37;;
1026;SDS011;502;48.746;9.214;2023-08-06T09:16:48;1.40;;;0.47;;
1026;SDS011;502;48.746;9.214;2023-08-06T09:19:16;0.80;;;0.30;;
1026;SDS011;502;48.746;9.214;2023-08-06T09:21:43;0.80;;;0.20;;
1026;SDS011;502;48.746;9.214;2023-08-06T09:24:13;0.70;;;0.20;;
1026;SDS011;502;48.746;9.214;2023-08-06T09:26:41;0.80;;;0.20;;
1026;SDS011;502;48.746;9.214;2023-08-06T09:29:08;0.70;;;0.23;;
1026;SDS011;502;48.746;9.214;2023-08-06T09:31:40;0.90;;;0.30;;
1026;SDS011;502;48.746;9.214;2023-08-06T09:34:10;0.80;;;0.40;;
1026;SDS011;502;48.746;9.214;2023-08-06T09:36:40;0.80;;;0.27;;
1026;SDS011;502;48.746;9.214;2023-08-06T09:39:12;1.07;;;0.37;;
1026;SDS011;502;48.746;9.214;2023-08-06T09:41:39;0.70;;;0.20;;
1026;SDS011;502;48.746;9.214;2023-08-06T09:44:05;1.13;;;0.20;;
1026;SDS011;502;48.746;9.214;2023-08-06T09:46:41;1.10;;;0.70;;
1026;SDS011;502;48.746;9.214;2023-08-06T09:49:08;0.70;;;0.30;;
1026;SDS011;502;48.746;9.214;2023-08-06T09:51:35;1.10;;;0.33;;
1026;SDS011;502;48.746;9.214;2023-08-06T09:54:06;0.80;;;0.20;;
1026;SDS011;502;48.746;9.214;2023-08-06T09:56:36;0.83;;;0.40;;
1026;SDS011;502;48.746;9.214;2023-08-06T09:59:07;0.80;;;0.30;;
1026;SDS011;502;48.746;9.214;2023-08-06T10:01:34;0.80;;;0.30;;
1026;SDS011;502;48.746;9.214;2023-08-06T10:04:01;0.80;;;0.30;;
1026;SDS011;502;48.746;9.214;2023-08-06T10:06:29;0.87;;;0.20;;
1026;SDS011;502;48.746;9.214;2023-08-06T10:08:57;1.03;;;0.43;;
1026;SDS011;502;48.746;9.214;2023-08-06T10:11:26;0.93;;;0.40;;
1026;SDS011;502;48.746;9.214;2023-08-06T10:13:54;0.90;;;0.30;;
1026;SDS011;502;48.746;9.214;2023-08-06T10:16:24;1.10;;;0.40;;
1026;SDS011;502;48.746;9.214;2023-08-06T10:18:51;1.13;;;0.27;;
1026;SDS011;502;48.746;9.214;2023-08-06T10:21:18;0.80;;;0.30;;
1026;SDS011;502;48.746;9.214;2023-08-06T10:23:49;0.90;;;0.27;;
1026;SDS011;502;48.746;9.214;2023-08-06T10:26:20;0.90;;;0.30;;
1026;SDS011;502;48.746;9.214;2023-08-06T10:28:48;0.77;;;0.30;;
1026;SDS011;502;48.746;9.214;2023-08-06T10:31:14;0.80;;;0.27;;
1026;SDS011;502;48.746;9.214;2023-08-06T10:33:42;0.80;;;0.40;;
1026;SDS011;502;48.746;9.214;2023-08-06T10:36:09;0.90;;;0.30;;
1026;SDS011;502;48.746;9.214;2023-08-06T10:38:43;0.80;;;0.20;;
1026;SDS011;502;48.746;9.214;2023-08-06T10:41:14;0.77;;;0.20;;
1026;SDS011;502;48.746;9.214;2023-08-06T10:43:42;0.90;;;0.40;;
1026;SDS011;502;48.746;9.214;2023-08-06T10:46:22;0.90;;;0.30;;
1026;SDS011;502;48.746;9.214;2023-08-06T10:48:49;0.87;;;0.40;;
1026;SDS011;502;48.746;9.214;2023-08-06T10:51:16;0.80;;;0.40;;
1026;SDS011;502;48.746;9.214;2023-08-06T10:53:43;0.80;;;0.20;;
1026;SDS011;502;48.746;9.214;2023-08-06T10:56:13;0.70;;;0.20;;
1026;SDS011;502;48.746;9.214;2023-08-06T10:58:41;0.90;;;0.37;;
1026;SDS011;502;48.746;9.214;2023-08-06T11:01:08;0.80;;;0.20;;
1026;SDS011;502;48.746;9.214;2023-08-06T11:03:36;0.80;;;0.30;;
1026;SDS011;502;48.746;9.214;2023-08-06T11:06:03;1.20;;;0.50;;
1026;SDS011;502;48.746;9.214;2023-08-06T11:08:33;0.80;;;0.30;;
1026;SDS011;502;48.746;9.214;2023-08-06T11:11:07;0.80;;;0.30;;
1026;SDS011;502;48.746;9.214;2023-08-06T11:13:36;0.80;;;0.30;;
1026;SDS011;502;48.746;9.214;2023-08-06T11:16:03;0.80;;;0.20;;
1026;SDS011;502;48.746;9.214;2023-08-06T11:18:30;0.77;;;0.30;;
1026;SDS011;502;48.746;9.214;2023-08-06T11:20:59;0.87;;;0.30;;
1026;SDS011;502;48.746;9.214;2023-08-06T11:23:26;2.07;;;0.37;;
1026;SDS011;502;48.746;9.214;2023-08-06T11:25:53;0.80;;;0.30;;
1026;SDS011;502;48.746;9.214;2023-08-06T11:28:21;0.90;;;0.50;;
1026;SDS011;502;48.746;9.214;2023-08-06T11:30:47;1.30;;;0.60;;
1026;SDS011;502;48.746;9.214;2023-08-06T11:33:21;0.80;;;0.30;;
1026;SDS011;502;48.746;9.214;2023-08-06T11:35:50;2.07;;;0.57;;
1026;SDS011;502;48.746;9.214;2023-08-06T11:38:18;1.13;;;0.50;;
1026;SDS011;502;48.746;9.214;2023-08-06T11:40:45;1.00;;;0.50;;
1026;SDS011;502;48.746;9.214;2023-08-06T11:43:11;1.10;;;0.60;;
1026;SDS011;502;48.746;9.214;2023-08-06T11:45:38;1.10;;;0.70;;
1026;SDS011;502;48.746;9.214;2023-08-06T11:48:05;1.13;;;0.70;;
1026;SDS011;502;48.746;9.214;2023-08-06T11:50:31;1.40;;;0.80;;
1026;SDS011;502;48.746;9.214;2023-08-06T11:53:02;1.47;;;0.87;;
1026;SDS011;502;48.746;9.214;2023-08-06T11:55:31;2.80;;;0.90;;
1026;SDS011;502;48.746;9.214;2023-08-06T11:57:59;1.10;;;0.80;;
1026;SDS011;502;48.746;9.214;2023-08-06T12:00:29;1.40;;;0.83;;
1026;SDS011;502;48.746;9.214;2023-08-06T12:02:55;2.40;;;0.60;;
1026;SDS011;502;48.746;9.214;2023-08-06T12:05:22;1.40;;;0.90;;
1026;SDS011;502;48.746;9.214;2023-08-06T12:07:51;1.43;;;0.70;;
1026;SDS011;502;48.746;9.214;2023-08-06T12:10:19;2.10;;;0.90;;
1026;SDS011;502;48.746;9.214;2023-08-06T12:12:48;1.33;;;1.00;;
1026;SDS011;502;48.746;9.214;2023-08-06T12:15:15;1.70;;;0.97;;
1026;SDS011;502;48.746;9.214;2023-08-06T12:17:42;1.67;;;0.93;;
1026;SDS011;502;48.746;9.214;2023-08-06T12:20:12;2.80;;;1.10;;
1026;SDS011;502;48.746;9.214;2023-08-06T12:22:39;2.10;;;1.30;;
1026;SDS011;502;48.746;9.214;2023-08-06T12:25:06;1.20;;;0.80;;
1026;SDS011;502;48.746;9.214;2023-08-06T12:27:34;1.10;;;0.80;;
1026;SDS011;502;48.746;9.214;2023-08-06T12:30:02;1.67;;;1.30;;
1026;SDS011;502;48.746;9.214;2023-08-06T12:32:29;2.10;;;1.10;;
1026;SDS011;502;48.746;9.214;2023-08-06T12:34:56;1.10;;;0.70;;
1026;SDS011;502;48.746;9.214;2023-08-06T12:37:23;1.70;;;1.00;;
1026;SDS011;502;48.746;9.214;2023-08-06T12:39:50;1.90;;;0.90;;
1026;SDS011;502;48.746;9.214;2023-08-06T12:45:05;1.87;;;0.97;;
1026;SDS011;502;48.746;9.214;2023-08-06T12:47:32;2.00;;;0.73;;
1026;SDS011;502;48.746;9.214;2023-08-06T12:49:58;1.63;;;0.90;;
1026;SDS011;502;48.746;9.214;2023-08-06T12:52:25;1.60;;;0.90;;
1026;SDS011;502;48.746;9.214;2023-08-06T12:54:52;1.40;;;0.90;;
1026;SDS011;502;48.746;9.214;2023-08-06T12:57:18;1.50;;;0.80;;
1026;SDS011;502;48.746;9.214;2023-08-06T12:59:45;1.60;;;0.57;;
1026;SDS011;502;48.746;9.214;2023-08-06T13:02:13;1.07;;;0.60;;
1026;SDS011;502;48.746;9.214;2023-08-06T13:04:39;1.73;;;0.60;;
1026;SDS011;502;48.746;9.214;2023-08-06T13:07:06;1.50;;;1.00;;
1026;SDS011;502;48.746;9.214;2023-08-06T13:09:33;2.93;;;1.20;;
1026;SDS011;502;48.746;9.214;2023-08-06T13:12:02;1.70;;;1.17;;
1026;SDS011;502;48.746;9.214;2023-08-06T13:14:31;2.27;;;0.93;;
1026;SDS011;502;48.746;9.214;2023-08-06T13:16:57;1.40;;;0.80;;
1026;SDS011;502;48.746;9.214;2023-08-06T13:19:25;2.53;;;1.30;;
1026;SDS011;502;48.746;9.214;2023-08-06T13:21:58;1.53;;;1.07;;
1026;SDS011;502;48.746;9.214;2023-08-06T13:24:28;2.20;;;1.40;;
1026;SDS011;502;48.746;9.214;2023-08-06T13:26:54;1.60;;;1.20;;
1026;SDS011;502;48.746;9.214;2023-08-06T13:29:21;1.37;;;1.10;;
1026;SDS011;502;48.746;9.214;2023-08-06T13:31:47;3.00;;;1.40;;
1026;SDS011;502;48.746;9.214;2023-08-06T13:34:14;2.07;;;1.17;;
1026;SDS011;502;48.746;9.214;2023-08-06T13:36:43;1.40;;;0.90;;
1026;SDS011;502;48.746;9.214;2023-08-06T13:39:10;1.63;;;1.20;;
1026;SDS011;502;48.746;9.214;2023-08-06T13:41:37;2.07;;;1.40;;
1026;SDS011;502;48.746;9.214;2023-08-06T13:44:03;1.00;;;0.70;;
1026;SDS011;502;48.746;9.214;2023-08-06T13:46:30;1.30;;;0.90;;
1026;SDS011;502;48.746;9.214;2023-08-06T13:48:57;1.33;;;0.70;;
1026;SDS011;502;48.746;9.214;2023-08-06T13:51:23;1.40;;;0.90;;
1026;SDS011;502;48.746;9.214;2023-08-06T13:53:51;1.00;;;0.60;;
1026;SDS011;502;48.746;9.214;2023-08-06T13:56:19;1.37;;;0.90;;
1026;SDS011;502;48.746;9.214;2023-08-06T13:58:45;2.57;;;0.90;;
1026;SDS011;502;48.746;9.214;2023-08-06T14:01:12;1.20;;;0.70;;
1026;SDS011;502;48.746;9.214;2023-08-06T14:03:39;1.20;;;0.50;;
1026;SDS011;502;48.746;9.214;2023-08-06T14:06:06;1.70;;;0.87;;
1026;SDS011;502;48.746;9.214;2023-08-06T14:08:33;1.00;;;0.70;;
1026;SDS011;502;48.746;9.214;2023-08-06T14:11:01;1.20;;;0.87;;
1026;SDS011;502;48.746;9.214;2023-08-06T14:13:27;2.10;;;0.80;;
1026;SDS011;502;48.746;9.214;2023-08-06T14:15:54;1.23;;;0.83;;
1026;SDS011;502;48.746;9.214;2023-08-06T14:18:21;1.90;;;0.80;;
1026;SDS011;502;48.746;9.214;2023-08-06T14:20:47;1.03;;;0.67;;
1026;SDS011;502;48.746;9.214;2023-08-06T14:23:14;2.00;;;0.63;;
1026;SDS011;502;48.746;9.214;2023-08-06T14:25:41;1.77;;;0.80;;
1026;SDS011;502;48.746;9.214;2023-08-06T14:28:08;1.43;;;0.70;;
1026;SDS011;502;48.746;9.214;2023-08-06T14:30:35;1.27;;;0.70;;
1026;SDS011;502;48.746;9.214;2023-08-06T14:33:02;1.43;;;0.60;;
1026;SDS011;502;48.746;9.214;2023-08-06T14:35:29;2.87;;;0.90;;
1026;SDS011;502;48.746;9.214;2023-08-06T14:37:56;2.13;;;0.90;;
1026;SDS011;502;48.746;9.214;2023-08-06T14:40:22;1.63;;;1.00;;
1026;SDS011;502;48.746;9.214;2023-08-06T14:42:51;1.83;;;0.80;;
1026;SDS011;502;48.746;9.214;2023-08-06T14:45:19;1.53;;;0.60;;
1026;SDS011;502;48.746;9.214;2023-08-06T14:47:45;1.40;;;0.90;;
1026;SDS011;502;48.746;9.214;2023-08-06T14:50:12;1.10;;;0.60;;
1026;SDS011;502;48.746;9.214;2023-08-06T14:52:38;0.93;;;0.60;;
1026;SDS011;502;48.746;9.214;2023-08-06T14:55:05;1.10;;;0.70;;
1026;SDS011;502;48.746;9.214;2023-08-06T14:57:32;1.60;;;1.10;;
1026;SDS011;502;48.746;9.214;2023-08-06T14:59:58;2.60;;;1.00;;
1026;SDS011;502;48.746;9.214;2023-08-06T15:02:26;1.10;;;0.77;;
1026;SDS011;502;48.746;9.214;2023-08-06T15:04:53;1.40;;;0.80;;
1026;SDS011;502;48.746;9.214;2023-08-06T15:07:20;1.30;;;0.70;;
1026;SDS011;502;48.746;9.214;2023-08-06T15:09:46;1.20;;;0.90;;
1026;SDS011;502;48.746;9.214;2023-08-06T15:12:13;1.80;;;1.10;;
1026;SDS011;502;48.746;9.214;2023-08-06T15:14:40;1.30;;;0.93;;
1026;SDS011;502;48.746;9.214;2023-08-06T15:17:06;1.10;;;0.77;;
1026;SDS011;502;48.746;9.214;2023-08-06T15:19:34;2.60;;;1.07;;
1026;SDS011;502;48.746;9.214;2023-08-06T15:22:01;1.13;;;0.67;;
1026;SDS011;502;48.746;9.214;2023-08-06T15:24:27;1.33;;;0.90;;
1026;SDS011;502;48.746;9.214;2023-08-06T15:26:54;1.33;;;0.77;;
1026;SDS011;502;48.746;9.214;2023-08-06T15:29:20;1.63;;;0.67;;
1026;SDS011;502;48.746;9.214;2023-08-06T15:31:47;1.90;;;0.63;;
1026;SDS011;502;48.746;9.214;2023-08-06T15:34:14;1.20;;;0.73;;
1026;SDS011;502;48.746;9.214;2023-08-06T15:36:42;1.30;;;0.70;;
1026;SDS011;502;48.746;9.214;2023-08-06T15:39:09;1.63;;;0.90;;